This is the latest recevied weather packets stored in our database for station/object W6JCZ-13. If no packets are shown the sender has not sent any weather packets the latest 10 day(s).
| Time | Temp. | Humidity | Pressure | Rain* | Wind** | Luminosity | Snow |
|---|---|---|---|---|---|---|---|
| 1777424416 | 23.89° C | 42% | 1015.3 hPa | 0 mm | - | - | - |
| 1777423816 | 23.89° C | 42% | 1015.4 hPa | 0 mm | - | - | - |
| 1777423216 | 23.89° C | 41% | 1015.5 hPa | 0 mm | - | - | - |
| 1777422616 | 24.44° C | 42% | 1015.4 hPa | 0 mm | - | - | - |
| 1777422016 | 24.44° C | 40% | 1015.6 hPa | 0 mm | - | - | - |
| 1777421416 | 25° C | 38% | 1015.5 hPa | 0 mm | - | - | - |
| 1777420816 | 25° C | 38% | 1015.5 hPa | 0 mm | - | - | - |
| 1777420216 | 24.44° C | 41% | 1015.5 hPa | 0 mm | - | - | - |
| 1777419616 | 24.44° C | 39% | 1015.5 hPa | 0 mm | - | - | - |
| 1777419016 | 25° C | 36% | 1015.7 hPa | 0 mm | - | - | - |
| 1777418416 | 24.44° C | 40% | 1015.8 hPa | 0 mm | - | - | - |
| 1777417816 | 25° C | 36% | 1015.8 hPa | 0 mm | - | - | - |
| 1777417230 | 25° C | 36% | 1015.9 hPa | 0 mm | - | - | - |
| 1777416616 | 25° C | 39% | 1015.9 hPa | 0 mm | - | - | - |
| 1777416018 | 24.44° C | 40% | 1016 hPa | 0 mm | - | - | - |
| 1777415418 | 24.44° C | 37% | 1016 hPa | 0 mm | - | - | - |
| 1777414818 | 23.33° C | 47% | 1016.1 hPa | 0 mm | - | - | - |
| 1777414218 | 23.33° C | 46% | 1016.2 hPa | 0 mm | - | - | - |
| 1777413618 | 23.33° C | 46% | 1016.3 hPa | 0 mm | - | - | - |
| 1777413018 | 23.33° C | 43% | 1016.5 hPa | 0 mm | - | - | - |
| 1777412418 | 23.89° C | 46% | 1016.7 hPa | 0 mm | - | - | - |
| 1777411818 | 23.33° C | 48% | 1016.9 hPa | 0 mm | - | - | - |
| 1777411218 | 23.33° C | 46% | 1016.9 hPa | 0 mm | - | - | - |
| 1777410618 | 22.78° C | 49% | 1017 hPa | 0 mm | - | - | - |
| 1777410018 | 22.22° C | 47% | 1017 hPa | 0 mm | - | - | - |
* Rain latest hour (hover to see other rain measurements)
** Current wind speed in m/s (hover to see current wind gust speed)